METAR Data
IDs: Format: Raw Decoded Include TAF

Data at: 1826 UTC 25 Sep 2020

KISW 251754Z AUTO 19014G19KT 10SM CLR 25/15 A2984 RMK AO2 SLP103 T02500150 10250 20144 58018
KISW 251654Z AUTO 21011G23KT 10SM CLR 23/15 A2987 RMK AO2 SLP114 T02280150
KISW 251554Z AUTO 21014G20KT 10SM CLR 22/14 A2989 RMK AO2 SLP120 T02170144
KISW 251454Z AUTO 20009KT 10SM CLR 19/14 A2990 RMK AO2 SLP124 T01940144 51000
KISW 251354Z AUTO 19008KT 10SM SCT042 BKN060 17/14 A2990 RMK AO2 SLP123 T01670144
KISW 251254Z AUTO 18005KT 10SM SCT041 15/14 A2990 RMK AO2 SLP126 T01500139
KISW 251154Z AUTO 19005KT 10SM SCT043 BKN060 14/13 A2990 RMK AO2 SLP124 70008 T01440133 10150 20128 51005
KISW 251054Z AUTO 18004KT 10SM FEW055 14/13 A2989 RMK AO2 SLP120 T01440133
KISW 251002Z AUTO 15003KT 6SM BR FEW055 14/13 A2989 RMK AO2 T01390128
KISW 250954Z AUTO 16003KT 2SM BR FEW055 13/12 A2989 RMK AO2 VIS 1V5 SLP121 T01330122
KISW 250952Z AUTO 00000KT 1 1/4SM BR SCT055 13/12 A2989 RMK AO2 VIS 1/2V5
KISW 250940Z AUTO 00000KT 3/4SM BR FEW002 SCT055 14/13 A2989 RMK AO2 VIS 1/4V3 T01390128
KISW 250938Z AUTO 00000KT 1 1/4SM BR FEW002 SCT055 14/13 A2989 RMK AO2 VIS 1/2V4 T01440128
KISW 250934Z AUTO 00000KT 3SM BR SCT002 SCT055 14/13 A2989 RMK AO2 T01440133
KISW 250923Z AUTO 00000KT 3SM BR BKN002 BKN050 14/14 A2989 RMK AO2 T01440139
KISW 250909Z AUTO 17003KT 1 1/4SM BR OVC002 15/14 A2989 RMK AO2 T01500139
KISW 250854Z AUTO 15003KT 1/4SM FG VV002 14/14 A2988 RMK AO2 SLP118 T01440139 56002
KISW 250754Z AUTO 00000KT 1/4SM FG VV003 14/13 A2988 RMK AO2 SLP118 T01390128
KISW 250654Z AUTO 00000KT 1/4SM FG VV002 13/12 A2989 RMK AO2 SLP119 T01280122
KISW 250554Z AUTO 00000KT 1/4SM FG VV002 14/13 A2989 RMK AO2 SLP120 T01390128 10167 20128 402000128 58001
KISW 250454Z AUTO 00000KT 1/4SM FG VV002 13/12 A2989 RMK AO2 SLP122 T01330122
KISW 250354Z AUTO 00000KT 1/2SM FG VV002 13/12 A2989 RMK AO2 SLP123 T01330122
KISW 250254Z AUTO 00000KT 1/4SM FG VV003 13/12 A2989 RMK AO2 SLP122 T01330122 52002
KISW 250249Z AUTO 00000KT 1/4SM FG VV003 14/13 A2989 RMK AO2
KISW 250242Z AUTO 00000KT 1SM BR VV003 14/13 A2988 RMK AO2 VIS 1/2V5 T01390128
KISW 250234Z AUTO 00000KT 2SM BR FEW002 14/13 A2989 RMK AO2 VIS 1/2V5 T01440133 TSNO
KISW 250225Z AUTO 00000KT 1/2SM FG VV002 14/14 A2989 RMK AO2 T01440139
KISW 250206Z AUTO 00000KT 3/4SM BR CLR 15/14 A2989 RMK AO2 T01500139
KISW 250202Z AUTO 00000KT 1SM BR VV003 15/14 A2989 RMK AO2 T01500139
KISW 250154Z AUTO 00000KT 2 1/2SM BR FEW002 15/14 A2989 RMK AO2 VIS 1 1/4V5 SLP121 T01500139
KISW 250151Z AUTO 00000KT 3SM BR FEW002 15/14 A2989 RMK AO2
KISW 250146Z AUTO 00000KT 1 1/4SM BR FEW002 14/13 A2989 RMK AO2 T01440133
KISW 250136Z AUTO 00000KT 3/4SM BR VV002 14/14 A2989 RMK AO2 VIS 1/4V5 T01440139
KISW 250134Z AUTO 00000KT 1 1/4SM BR FEW002 15/14 A2989 RMK AO2 VIS 1/4V5 T01500139
KISW 250124Z AUTO 00000KT 3SM BR CLR 15/14 A2989 RMK AO2 T01500139
KISW 250121Z AUTO 00000KT 1 1/2SM BR FEW010 15/14 A2989 RMK AO2 T01500139
KISW 250110Z AUTO 16003KT 3/4SM BR FEW003 SCT010 15/14 A2988 RMK AO2 T01500139
KISW 250103Z AUTO 00000KT 1 1/4SM BR FEW003 FEW010 SCT028 16/14 A2989 RMK AO2 T01560144
KISW 250054Z AUTO 00000KT 1/2SM FG FEW003 SCT010 15/14 A2989 RMK AO2 SLP120 T01500139
KISW 250035Z AUTO 00000KT 1/4SM FG VV002 16/15 A2988 RMK AO2 T01560150
KISW 250028Z AUTO 00000KT 1 1/4SM BR CLR 16/15 A2988 RMK AO2 T01610150
KISW 242354Z AUTO 17003KT 9SM CLR 17/15 A2988 RMK AO2 SLP117 60007 T01670150 10200 20167 53005
KISW 242320Z AUTO 19003KT 10SM SCT013 18/16 A2987 RMK AO2 T01830156
KISW 242308Z AUTO 22007KT 10SM BKN015 19/16 A2987 RMK AO2 T01890156
KISW 242254Z AUTO 22006KT 10SM SCT014 SCT036 19/16 A2987 RMK AO2 SLP114 T01890156
KISW 242217Z AUTO 23005KT 10SM OVC031 19/16 A2987 RMK AO2 T01890161
KISW 242154Z AUTO 23005KT 10SM BKN029 BKN034 OVC050 19/16 A2987 RMK AO2 SLP113 T01890156
KISW 242110Z AUTO 10SM FEW022 SCT027 OVC070 19/17 A2986 RMK AO2 T01940167
KISW 242054Z AUTO 10SM BKN022 BKN027 OVC065 18/16 A2986 RMK AO2 RAE43 SLP111 P0003 60007 T01830161 50002
KISW 242037Z AUTO 10SM -RA BKN021 OVC049 18/16 A2986 RMK AO2 P0003 T01830156
KISW 242018Z AUTO 3SM RA BR FEW013 BKN049 OVC055 18/16 A2987 RMK AO2 P0003 T01830161
KISW 241954Z AUTO 8SM -RA SCT016 BKN023 OVC065 19/17 A2986 RMK AO2 SLP112 P0003 T01890167
KISW 241925Z AUTO 15003KT 10SM -RA SCT025 BKN075 OVC090 19/17 A2986 RMK AO2 P0001 T01940167
KISW 241854Z AUTO 10SM -RA BKN025 BKN031 OVC100 19/17 A2986 RMK AO2 SLP109 P0001 T01940167
KISW 241754Z AUTO 10SM -RA BKN035 BKN044 OVC120 20/16 A2987 RMK AO2 RAB12 SLP114 P0000 60001 T02000161 10200 20144 58012
KISW 241654Z AUTO 15006KT 10SM BKN110 19/15 A2989 RMK AO2 SLP121 T01890150
KISW 241554Z AUTO 12006KT 10SM FEW120 18/14 A2990 RMK AO2 RAB1459E10 SLP125 P0000 T01780144
KISW 241454Z AUTO 12005KT 10SM SCT100 SCT120 17/14 A2991 RMK AO2 RAE00 SLP127 P0000 60001 T01670139 50003
KISW 241354Z AUTO 10SM -RA FEW025 BKN041 OVC070 16/14 A2992 RMK AO2 RAB05 SLP131 P0001 T01610139
KISW 241254Z AUTO 00000KT 10SM FEW060 16/13 A2991 RMK AO2 RAB32E41 SLP129 P0000 T01560133
KISW 241154Z AUTO 00000KT 10SM FEW060 14/13 A2990 RMK AO2 SLP124 60000 T01440128 10156 20133 58001
KISW 241054Z AUTO 00000KT 10SM FEW060 14/13 A2990 RMK AO2 SLP123 T01440128
KISW 240954Z AUTO 00000KT 10SM BKN055 14/13 A2991 RMK AO2 SLP123 T01440133
KISW 240854Z AUTO 00000KT 10SM CLR 14/13 A2990 RMK AO2 RAB01E11 SLP122 P0000 60000 T01390128 55004
KISW 240754Z AUTO 00000KT 10SM SCT120 16/13 A2990 RMK AO2 SLP120 T01560133
KISW 240654Z AUTO 20003KT 10SM CLR 14/13 A2991 RMK AO2 SLP124 T01440128